sensor_id;sensor_type;location;lat;lon;timestamp;P1;durP1;ratioP1;P2;durP2;ratioP2
33138;SDS011;19501;50.948;5.316;2022-09-20T00:01:54;15.13;;;3.65;;
33138;SDS011;19501;50.948;5.316;2022-09-20T00:04:20;9.70;;;3.65;;
33138;SDS011;19501;50.948;5.316;2022-09-20T00:06:45;11.95;;;3.90;;
33138;SDS011;19501;50.948;5.316;2022-09-20T00:09:11;11.18;;;3.78;;
33138;SDS011;19501;50.948;5.316;2022-09-20T00:11:37;12.95;;;3.60;;
33138;SDS011;19501;50.948;5.316;2022-09-20T00:14:03;13.15;;;3.70;;
33138;SDS011;19501;50.948;5.316;2022-09-20T00:16:33;12.68;;;3.38;;
33138;SDS011;19501;50.948;5.316;2022-09-20T00:19:01;9.63;;;3.58;;
33138;SDS011;19501;50.948;5.316;2022-09-20T00:21:29;11.00;;;3.28;;
33138;SDS011;19501;50.948;5.316;2022-09-20T00:23:56;12.75;;;3.50;;
33138;SDS011;19501;50.948;5.316;2022-09-20T00:26:23;10.73;;;3.50;;
33138;SDS011;19501;50.948;5.316;2022-09-20T00:28:50;10.77;;;3.90;;
33138;SDS011;19501;50.948;5.316;2022-09-20T00:31:17;14.65;;;3.50;;
33138;SDS011;19501;50.948;5.316;2022-09-20T00:33:43;8.60;;;3.53;;
33138;SDS011;19501;50.948;5.316;2022-09-20T00:36:27;11.95;;;3.60;;
33138;SDS011;19501;50.948;5.316;2022-09-20T00:38:57;12.95;;;3.70;;
33138;SDS011;19501;50.948;5.316;2022-09-20T00:41:24;9.55;;;3.55;;
33138;SDS011;19501;50.948;5.316;2022-09-20T00:43:50;15.63;;;4.22;;
33138;SDS011;19501;50.948;5.316;2022-09-20T00:51:38;10.05;;;3.70;;
33138;SDS011;19501;50.948;5.316;2022-09-20T00:54:07;14.73;;;3.85;;
33138;SDS011;19501;50.948;5.316;2022-09-20T00:56:36;13.55;;;3.83;;
33138;SDS011;19501;50.948;5.316;2022-09-20T01:01:43;10.98;;;3.40;;
33138;SDS011;19501;50.948;5.316;2022-09-20T01:04:11;14.23;;;3.67;;
33138;SDS011;19501;50.948;5.316;2022-09-20T01:06:39;13.30;;;3.80;;
33138;SDS011;19501;50.948;5.316;2022-09-20T01:09:08;10.80;;;3.47;;
33138;SDS011;19501;50.948;5.316;2022-09-20T01:11:35;13.32;;;4.07;;
33138;SDS011;19501;50.948;5.316;2022-09-20T01:14:04;16.20;;;3.80;;
33138;SDS011;19501;50.948;5.316;2022-09-20T01:16:30;13.35;;;3.75;;
33138;SDS011;19501;50.948;5.316;2022-09-20T01:18:58;12.10;;;4.55;;
33138;SDS011;19501;50.948;5.316;2022-09-20T01:21:26;16.80;;;4.60;;
33138;SDS011;19501;50.948;5.316;2022-09-20T01:24:00;8.90;;;3.58;;
33138;SDS011;19501;50.948;5.316;2022-09-20T01:29:32;10.02;;;3.75;;
33138;SDS011;19501;50.948;5.316;2022-09-20T01:31:59;10.90;;;3.70;;
33138;SDS011;19501;50.948;5.316;2022-09-20T01:34:33;13.43;;;3.50;;
33138;SDS011;19501;50.948;5.316;2022-09-20T01:39:46;10.05;;;3.75;;
33138;SDS011;19501;50.948;5.316;2022-09-20T01:42:16;9.55;;;3.80;;
33138;SDS011;19501;50.948;5.316;2022-09-20T01:52:46;12.80;;;4.40;;
33138;SDS011;19501;50.948;5.316;2022-09-20T01:55:38;11.25;;;4.13;;
33138;SDS011;19501;50.948;5.316;2022-09-20T02:18:03;10.77;;;4.05;;
33138;SDS011;19501;50.948;5.316;2022-09-20T02:25:56;17.80;;;4.20;;
33138;SDS011;19501;50.948;5.316;2022-09-20T02:28:28;14.73;;;4.20;;
33138;SDS011;19501;50.948;5.316;2022-09-20T02:31:15;12.88;;;4.57;;
33138;SDS011;19501;50.948;5.316;2022-09-20T02:33:56;16.35;;;4.25;;
33138;SDS011;19501;50.948;5.316;2022-09-20T02:36:48;19.60;;;4.07;;
33138;SDS011;19501;50.948;5.316;2022-09-20T02:39:48;13.60;;;3.78;;
33138;SDS011;19501;50.948;5.316;2022-09-20T02:42:43;11.10;;;3.35;;
33138;SDS011;19501;50.948;5.316;2022-09-20T02:48:16;14.88;;;3.63;;
33138;SDS011;19501;50.948;5.316;2022-09-20T02:50:53;13.93;;;3.47;;
33138;SDS011;19501;50.948;5.316;2022-09-20T02:53:44;10.30;;;3.53;;
33138;SDS011;19501;50.948;5.316;2022-09-20T03:01:56;9.23;;;3.00;;
33138;SDS011;19501;50.948;5.316;2022-09-20T03:05:00;10.75;;;3.15;;
33138;SDS011;19501;50.948;5.316;2022-09-20T03:13:09;9.68;;;2.88;;
33138;SDS011;19501;50.948;5.316;2022-09-20T03:21:10;6.90;;;2.47;;
33138;SDS011;19501;50.948;5.316;2022-09-20T03:24:02;10.98;;;3.28;;
33138;SDS011;19501;50.948;5.316;2022-09-20T03:29:47;13.70;;;3.15;;
33138;SDS011;19501;50.948;5.316;2022-09-20T03:38:04;10.80;;;2.90;;
33138;SDS011;19501;50.948;5.316;2022-09-20T03:43:51;7.95;;;2.58;;
33138;SDS011;19501;50.948;5.316;2022-09-20T03:57:42;9.15;;;2.65;;
33138;SDS011;19501;50.948;5.316;2022-09-20T04:06:25;9.75;;;3.13;;
33138;SDS011;19501;50.948;5.316;2022-09-20T04:18:30;9.18;;;3.22;;
33138;SDS011;19501;50.948;5.316;2022-09-20T04:21:16;12.90;;;3.35;;
33138;SDS011;19501;50.948;5.316;2022-09-20T04:26:14;14.07;;;4.82;;
33138;SDS011;19501;50.948;5.316;2022-09-20T04:28:56;12.50;;;3.50;;
33138;SDS011;19501;50.948;5.316;2022-09-20T04:31:29;11.43;;;3.93;;
33138;SDS011;19501;50.948;5.316;2022-09-20T04:34:00;10.13;;;3.58;;
33138;SDS011;19501;50.948;5.316;2022-09-20T04:37:15;16.40;;;3.78;;
33138;SDS011;19501;50.948;5.316;2022-09-20T04:39:44;10.50;;;3.47;;
33138;SDS011;19501;50.948;5.316;2022-09-20T04:55:47;16.70;;;4.32;;
33138;SDS011;19501;50.948;5.316;2022-09-20T05:21:51;15.93;;;4.53;;
33138;SDS011;19501;50.948;5.316;2022-09-20T05:27:45;16.88;;;4.85;;
33138;SDS011;19501;50.948;5.316;2022-09-20T05:32:51;16.60;;;4.80;;
33138;SDS011;19501;50.948;5.316;2022-09-20T05:35:46;16.13;;;5.30;;
33138;SDS011;19501;50.948;5.316;2022-09-20T05:49:02;19.20;;;5.82;;
33138;SDS011;19501;50.948;5.316;2022-09-20T05:54:54;17.63;;;5.22;;
33138;SDS011;19501;50.948;5.316;2022-09-20T05:57:58;12.32;;;4.57;;
33138;SDS011;19501;50.948;5.316;2022-09-20T06:00:47;15.63;;;4.78;;
33138;SDS011;19501;50.948;5.316;2022-09-20T06:06:09;15.18;;;5.40;;
33138;SDS011;19501;50.948;5.316;2022-09-20T06:09:13;14.30;;;5.22;;
33138;SDS011;19501;50.948;5.316;2022-09-20T06:22:37;16.00;;;5.82;;
33138;SDS011;19501;50.948;5.316;2022-09-20T06:30:24;18.85;;;5.70;;
33138;SDS011;19501;50.948;5.316;2022-09-20T06:32:59;20.08;;;5.75;;
33138;SDS011;19501;50.948;5.316;2022-09-20T06:35:38;15.57;;;5.25;;
33138;SDS011;19501;50.948;5.316;2022-09-20T06:40:59;17.40;;;5.20;;
33138;SDS011;19501;50.948;5.316;2022-09-20T06:43:43;16.50;;;5.32;;
33138;SDS011;19501;50.948;5.316;2022-09-20T06:46:10;18.20;;;5.28;;
33138;SDS011;19501;50.948;5.316;2022-09-20T06:48:36;15.50;;;5.60;;
33138;SDS011;19501;50.948;5.316;2022-09-20T06:51:05;19.20;;;5.72;;
33138;SDS011;19501;50.948;5.316;2022-09-20T06:53:34;13.50;;;5.28;;
33138;SDS011;19501;50.948;5.316;2022-09-20T06:56:02;17.65;;;6.45;;
33138;SDS011;19501;50.948;5.316;2022-09-20T06:58:28;16.02;;;5.18;;
33138;SDS011;19501;50.948;5.316;2022-09-20T07:00:56;18.80;;;5.60;;
33138;SDS011;19501;50.948;5.316;2022-09-20T07:03:24;15.07;;;5.88;;
33138;SDS011;19501;50.948;5.316;2022-09-20T07:05:50;20.15;;;5.55;;
33138;SDS011;19501;50.948;5.316;2022-09-20T07:08:16;12.88;;;4.35;;
33138;SDS011;19501;50.948;5.316;2022-09-20T07:10:42;15.13;;;4.93;;
33138;SDS011;19501;50.948;5.316;2022-09-20T07:13:08;15.05;;;4.47;;
33138;SDS011;19501;50.948;5.316;2022-09-20T07:15:37;15.85;;;4.75;;
33138;SDS011;19501;50.948;5.316;2022-09-20T07:18:03;14.20;;;4.32;;
33138;SDS011;19501;50.948;5.316;2022-09-20T07:20:29;18.98;;;5.00;;
33138;SDS011;19501;50.948;5.316;2022-09-20T07:22:55;12.10;;;4.70;;
33138;SDS011;19501;50.948;5.316;2022-09-20T07:25:21;12.80;;;4.60;;
33138;SDS011;19501;50.948;5.316;2022-09-20T07:27:48;15.20;;;4.65;;
33138;SDS011;19501;50.948;5.316;2022-09-20T07:30:15;13.98;;;4.45;;
33138;SDS011;19501;50.948;5.316;2022-09-20T07:32:42;15.68;;;5.15;;
33138;SDS011;19501;50.948;5.316;2022-09-20T07:35:08;16.65;;;5.32;;
33138;SDS011;19501;50.948;5.316;2022-09-20T07:37:35;15.95;;;5.05;;
33138;SDS011;19501;50.948;5.316;2022-09-20T07:40:01;18.27;;;5.05;;
33138;SDS011;19501;50.948;5.316;2022-09-20T07:42:29;16.42;;;5.05;;
33138;SDS011;19501;50.948;5.316;2022-09-20T07:44:55;17.77;;;5.20;;
33138;SDS011;19501;50.948;5.316;2022-09-20T07:47:21;17.25;;;5.22;;
33138;SDS011;19501;50.948;5.316;2022-09-20T07:49:50;14.77;;;4.93;;
33138;SDS011;19501;50.948;5.316;2022-09-20T07:52:17;17.23;;;5.78;;
33138;SDS011;19501;50.948;5.316;2022-09-20T07:54:43;14.32;;;5.07;;
33138;SDS011;19501;50.948;5.316;2022-09-20T07:57:10;15.57;;;5.40;;
33138;SDS011;19501;50.948;5.316;2022-09-20T07:59:37;21.73;;;6.35;;
33138;SDS011;19501;50.948;5.316;2022-09-20T08:02:03;15.00;;;5.30;;
33138;SDS011;19501;50.948;5.316;2022-09-20T08:04:28;18.77;;;5.50;;
33138;SDS011;19501;50.948;5.316;2022-09-20T08:06:54;16.77;;;5.68;;
33138;SDS011;19501;50.948;5.316;2022-09-20T08:09:22;16.42;;;5.22;;
33138;SDS011;19501;50.948;5.316;2022-09-20T08:11:48;17.55;;;5.55;;
33138;SDS011;19501;50.948;5.316;2022-09-20T08:14:15;14.57;;;5.03;;
33138;SDS011;19501;50.948;5.316;2022-09-20T08:16:45;14.38;;;5.28;;
33138;SDS011;19501;50.948;5.316;2022-09-20T08:19:19;11.85;;;4.28;;
33138;SDS011;19501;50.948;5.316;2022-09-20T08:21:47;15.38;;;4.22;;
33138;SDS011;19501;50.948;5.316;2022-09-20T08:24:14;9.18;;;3.70;;
33138;SDS011;19501;50.948;5.316;2022-09-20T08:26:40;13.90;;;4.93;;
33138;SDS011;19501;50.948;5.316;2022-09-20T08:29:08;13.57;;;4.18;;
33138;SDS011;19501;50.948;5.316;2022-09-20T08:31:36;12.73;;;4.68;;
33138;SDS011;19501;50.948;5.316;2022-09-20T08:34:06;12.20;;;4.22;;
33138;SDS011;19501;50.948;5.316;2022-09-20T08:36:35;11.13;;;3.97;;
33138;SDS011;19501;50.948;5.316;2022-09-20T08:39:05;13.70;;;4.32;;
33138;SDS011;19501;50.948;5.316;2022-09-20T08:42:04;16.83;;;5.70;;
33138;SDS011;19501;50.948;5.316;2022-09-20T08:44:30;13.50;;;4.70;;
33138;SDS011;19501;50.948;5.316;2022-09-20T08:47:03;15.52;;;4.07;;
33138;SDS011;19501;50.948;5.316;2022-09-20T08:49:33;10.52;;;3.90;;
33138;SDS011;19501;50.948;5.316;2022-09-20T08:52:00;11.73;;;3.90;;
33138;SDS011;19501;50.948;5.316;2022-09-20T08:54:29;11.60;;;3.78;;
33138;SDS011;19501;50.948;5.316;2022-09-20T08:56:57;10.65;;;4.13;;
33138;SDS011;19501;50.948;5.316;2022-09-20T08:59:31;13.45;;;4.20;;
33138;SDS011;19501;50.948;5.316;2022-09-20T09:01:57;13.40;;;4.78;;
33138;SDS011;19501;50.948;5.316;2022-09-20T09:04:33;12.10;;;4.57;;
33138;SDS011;19501;50.948;5.316;2022-09-20T09:07:00;14.63;;;5.10;;
33138;SDS011;19501;50.948;5.316;2022-09-20T09:09:26;13.38;;;5.00;;
33138;SDS011;19501;50.948;5.316;2022-09-20T09:11:54;18.92;;;5.43;;
33138;SDS011;19501;50.948;5.316;2022-09-20T09:17:12;13.43;;;5.20;;
33138;SDS011;19501;50.948;5.316;2022-09-20T09:27:49;9.70;;;3.53;;
33138;SDS011;19501;50.948;5.316;2022-09-20T09:38:45;9.15;;;3.42;;
33138;SDS011;19501;50.948;5.316;2022-09-20T09:43:57;9.48;;;3.25;;
33138;SDS011;19501;50.948;5.316;2022-09-20T09:46:24;9.07;;;2.92;;
33138;SDS011;19501;50.948;5.316;2022-09-20T09:49:08;5.65;;;2.58;;
33138;SDS011;19501;50.948;5.316;2022-09-20T09:51:40;6.63;;;2.65;;
33138;SDS011;19501;50.948;5.316;2022-09-20T09:54:34;5.18;;;2.05;;
33138;SDS011;19501;50.948;5.316;2022-09-20T10:05:07;8.30;;;2.63;;
33138;SDS011;19501;50.948;5.316;2022-09-20T10:10:34;9.27;;;2.38;;
33138;SDS011;19501;50.948;5.316;2022-09-20T10:18:12;5.80;;;2.00;;
33138;SDS011;19501;50.948;5.316;2022-09-20T10:34:38;8.20;;;2.08;;
33138;SDS011;19501;50.948;5.316;2022-09-20T10:37:22;7.80;;;2.28;;
33138;SDS011;19501;50.948;5.316;2022-09-20T10:40:05;5.47;;;1.92;;
33138;SDS011;19501;50.948;5.316;2022-09-20T10:43:23;7.57;;;2.03;;
33138;SDS011;19501;50.948;5.316;2022-09-20T10:54:36;4.13;;;1.52;;
33138;SDS011;19501;50.948;5.316;2022-09-20T11:05:07;5.03;;;1.70;;
33138;SDS011;19501;50.948;5.316;2022-09-20T11:07:52;6.32;;;2.58;;
33138;SDS011;19501;50.948;5.316;2022-09-20T11:10:34;3.33;;;1.70;;
33138;SDS011;19501;50.948;5.316;2022-09-20T11:13:25;5.60;;;1.67;;
33138;SDS011;19501;50.948;5.316;2022-09-20T11:16:05;7.00;;;1.80;;
33138;SDS011;19501;50.948;5.316;2022-09-20T11:18:39;1.98;;;1.40;;
33138;SDS011;19501;50.948;5.316;2022-09-20T11:21:23;5.72;;;1.67;;
33138;SDS011;19501;50.948;5.316;2022-09-20T11:24:01;6.40;;;1.50;;
33138;SDS011;19501;50.948;5.316;2022-09-20T11:27:18;7.03;;;2.05;;
33138;SDS011;19501;50.948;5.316;2022-09-20T11:32:26;3.10;;;1.50;;
33138;SDS011;19501;50.948;5.316;2022-09-20T11:34:55;6.65;;;1.83;;
33138;SDS011;19501;50.948;5.316;2022-09-20T11:37:27;5.20;;;1.70;;
33138;SDS011;19501;50.948;5.316;2022-09-20T11:39:59;4.97;;;1.60;;
33138;SDS011;19501;50.948;5.316;2022-09-20T11:42:33;6.97;;;1.70;;
33138;SDS011;19501;50.948;5.316;2022-09-20T11:45:01;4.07;;;1.55;;
33138;SDS011;19501;50.948;5.316;2022-09-20T11:47:29;7.63;;;1.88;;
33138;SDS011;19501;50.948;5.316;2022-09-20T12:01:13;8.18;;;2.08;;
33138;SDS011;19501;50.948;5.316;2022-09-20T12:03:49;8.43;;;2.13;;
33138;SDS011;19501;50.948;5.316;2022-09-20T12:08:57;8.40;;;1.95;;
33138;SDS011;19501;50.948;5.316;2022-09-20T12:11:27;7.07;;;2.30;;
33138;SDS011;19501;50.948;5.316;2022-09-20T12:14:30;7.85;;;2.10;;
33138;SDS011;19501;50.948;5.316;2022-09-20T12:16:52;5.57;;;2.00;;
33138;SDS011;19501;50.948;5.316;2022-09-20T12:24:32;10.68;;;2.00;;
33138;SDS011;19501;50.948;5.316;2022-09-20T12:27:00;6.82;;;2.00;;
33138;SDS011;19501;50.948;5.316;2022-09-20T12:34:56;4.88;;;1.90;;
33138;SDS011;19501;50.948;5.316;2022-09-20T12:37:23;6.50;;;2.33;;
33138;SDS011;19501;50.948;5.316;2022-09-20T12:39:51;8.32;;;2.22;;
33138;SDS011;19501;50.948;5.316;2022-09-20T12:42:26;7.53;;;2.40;;
33138;SDS011;19501;50.948;5.316;2022-09-20T12:44:59;8.68;;;2.15;;
33138;SDS011;19501;50.948;5.316;2022-09-20T12:47:32;3.90;;;1.80;;
33138;SDS011;19501;50.948;5.316;2022-09-20T12:52:47;7.70;;;2.42;;
33138;SDS011;19501;50.948;5.316;2022-09-20T13:00:50;7.35;;;2.53;;
33138;SDS011;19501;50.948;5.316;2022-09-20T13:03:37;7.63;;;2.35;;
33138;SDS011;19501;50.948;5.316;2022-09-20T13:08:46;7.18;;;2.72;;
33138;SDS011;19501;50.948;5.316;2022-09-20T13:11:16;9.05;;;3.90;;
33138;SDS011;19501;50.948;5.316;2022-09-20T13:19:22;11.32;;;4.43;;
33138;SDS011;19501;50.948;5.316;2022-09-20T13:21:53;7.70;;;3.13;;
33138;SDS011;19501;50.948;5.316;2022-09-20T13:24:23;4.55;;;2.60;;
33138;SDS011;19501;50.948;5.316;2022-09-20T13:26:51;13.40;;;4.30;;
33138;SDS011;19501;50.948;5.316;2022-09-20T13:32:21;10.57;;;2.83;;
33138;SDS011;19501;50.948;5.316;2022-09-20T13:37:45;8.18;;;3.10;;
33138;SDS011;19501;50.948;5.316;2022-09-20T13:40:21;9.85;;;2.85;;
33138;SDS011;19501;50.948;5.316;2022-09-20T13:42:57;8.48;;;3.03;;
33138;SDS011;19501;50.948;5.316;2022-09-20T13:45:29;6.95;;;2.67;;
33138;SDS011;19501;50.948;5.316;2022-09-20T13:47:58;7.13;;;2.60;;
33138;SDS011;19501;50.948;5.316;2022-09-20T13:50:29;7.70;;;2.90;;
33138;SDS011;19501;50.948;5.316;2022-09-20T13:52:59;9.57;;;2.58;;
33138;SDS011;19501;50.948;5.316;2022-09-20T13:55:35;10.40;;;2.80;;
33138;SDS011;19501;50.948;5.316;2022-09-20T14:00:53;10.68;;;3.17;;
33138;SDS011;19501;50.948;5.316;2022-09-20T14:03:21;10.80;;;3.25;;
33138;SDS011;19501;50.948;5.316;2022-09-20T14:05:50;7.60;;;3.03;;
33138;SDS011;19501;50.948;5.316;2022-09-20T14:08:26;8.93;;;3.25;;
33138;SDS011;19501;50.948;5.316;2022-09-20T14:11:03;7.93;;;3.00;;
33138;SDS011;19501;50.948;5.316;2022-09-20T14:13:32;8.88;;;3.42;;
33138;SDS011;19501;50.948;5.316;2022-09-20T14:16:02;12.00;;;3.80;;
33138;SDS011;19501;50.948;5.316;2022-09-20T14:18:28;11.25;;;4.40;;
33138;SDS011;19501;50.948;5.316;2022-09-20T14:20:54;10.13;;;3.45;;
33138;SDS011;19501;50.948;5.316;2022-09-20T14:23:21;11.77;;;3.53;;
33138;SDS011;19501;50.948;5.316;2022-09-20T14:32:00;8.15;;;3.13;;
33138;SDS011;19501;50.948;5.316;2022-09-20T14:35:03;10.45;;;2.83;;
33138;SDS011;19501;50.948;5.316;2022-09-20T14:37:51;11.18;;;3.40;;
33138;SDS011;19501;50.948;5.316;2022-09-20T14:40:30;9.15;;;3.63;;
33138;SDS011;19501;50.948;5.316;2022-09-20T14:43:04;11.10;;;3.47;;
33138;SDS011;19501;50.948;5.316;2022-09-20T14:45:40;11.68;;;3.50;;
33138;SDS011;19501;50.948;5.316;2022-09-20T14:55:29;9.43;;;3.50;;
33138;SDS011;19501;50.948;5.316;2022-09-20T14:57:57;12.35;;;3.70;;
33138;SDS011;19501;50.948;5.316;2022-09-20T15:00:25;11.30;;;3.50;;
33138;SDS011;19501;50.948;5.316;2022-09-20T15:02:51;10.95;;;3.47;;
33138;SDS011;19501;50.948;5.316;2022-09-20T15:05:19;8.02;;;2.75;;
33138;SDS011;19501;50.948;5.316;2022-09-20T15:07:49;9.02;;;3.47;;
33138;SDS011;19501;50.948;5.316;2022-09-20T15:10:20;7.00;;;2.80;;
33138;SDS011;19501;50.948;5.316;2022-09-20T15:12:46;8.60;;;2.53;;
33138;SDS011;19501;50.948;5.316;2022-09-20T15:15:13;7.38;;;2.55;;
33138;SDS011;19501;50.948;5.316;2022-09-20T15:17:41;8.45;;;3.20;;
33138;SDS011;19501;50.948;5.316;2022-09-20T15:20:12;7.38;;;2.53;;
33138;SDS011;19501;50.948;5.316;2022-09-20T15:22:45;8.23;;;2.40;;
33138;SDS011;19501;50.948;5.316;2022-09-20T15:25:18;5.82;;;2.50;;
33138;SDS011;19501;50.948;5.316;2022-09-20T15:27:48;9.73;;;2.80;;
33138;SDS011;19501;50.948;5.316;2022-09-20T15:30:16;10.48;;;2.75;;
33138;SDS011;19501;50.948;5.316;2022-09-20T15:32:43;7.72;;;2.55;;
33138;SDS011;19501;50.948;5.316;2022-09-20T15:35:10;7.47;;;3.00;;
33138;SDS011;19501;50.948;5.316;2022-09-20T15:37:38;6.85;;;2.60;;
33138;SDS011;19501;50.948;5.316;2022-09-20T15:40:04;9.18;;;2.92;;
33138;SDS011;19501;50.948;5.316;2022-09-20T15:42:31;7.97;;;2.88;;
33138;SDS011;19501;50.948;5.316;2022-09-20T15:45:05;12.63;;;3.20;;
33138;SDS011;19501;50.948;5.316;2022-09-20T15:47:33;8.93;;;3.70;;
33138;SDS011;19501;50.948;5.316;2022-09-20T15:50:01;9.32;;;3.17;;
33138;SDS011;19501;50.948;5.316;2022-09-20T15:52:31;15.40;;;5.22;;
33138;SDS011;19501;50.948;5.316;2022-09-20T15:54:59;9.23;;;3.03;;
33138;SDS011;19501;50.948;5.316;2022-09-20T15:57:27;10.75;;;3.70;;
33138;SDS011;19501;50.948;5.316;2022-09-20T15:59:53;7.50;;;2.92;;
33138;SDS011;19501;50.948;5.316;2022-09-20T16:02:19;11.18;;;3.58;;
33138;SDS011;19501;50.948;5.316;2022-09-20T16:04:45;14.27;;;3.15;;
33138;SDS011;19501;50.948;5.316;2022-09-20T16:07:12;9.45;;;3.30;;
33138;SDS011;19501;50.948;5.316;2022-09-20T16:09:38;10.50;;;3.08;;
33138;SDS011;19501;50.948;5.316;2022-09-20T16:12:04;9.10;;;3.08;;
33138;SDS011;19501;50.948;5.316;2022-09-20T16:14:30;10.30;;;2.83;;
33138;SDS011;19501;50.948;5.316;2022-09-20T16:16:56;11.88;;;3.50;;
33138;SDS011;19501;50.948;5.316;2022-09-20T16:19:22;11.73;;;3.30;;
33138;SDS011;19501;50.948;5.316;2022-09-20T16:21:51;7.88;;;3.00;;
33138;SDS011;19501;50.948;5.316;2022-09-20T16:24:18;7.95;;;3.25;;
33138;SDS011;19501;50.948;5.316;2022-09-20T16:26:48;12.77;;;3.65;;
33138;SDS011;19501;50.948;5.316;2022-09-20T16:29:13;6.15;;;2.60;;
33138;SDS011;19501;50.948;5.316;2022-09-20T16:31:41;10.68;;;2.83;;
33138;SDS011;19501;50.948;5.316;2022-09-20T16:34:18;11.57;;;3.03;;
33138;SDS011;19501;50.948;5.316;2022-09-20T16:36:44;14.00;;;2.92;;
33138;SDS011;19501;50.948;5.316;2022-09-20T16:39:12;10.70;;;3.08;;
33138;SDS011;19501;50.948;5.316;2022-09-20T16:41:39;8.95;;;2.97;;
33138;SDS011;19501;50.948;5.316;2022-09-20T16:44:05;9.75;;;2.70;;
33138;SDS011;19501;50.948;5.316;2022-09-20T16:46:31;7.88;;;3.45;;
33138;SDS011;19501;50.948;5.316;2022-09-20T16:49:02;9.48;;;3.10;;
33138;SDS011;19501;50.948;5.316;2022-09-20T16:51:30;9.32;;;3.22;;
33138;SDS011;19501;50.948;5.316;2022-09-20T16:53:59;7.78;;;2.70;;
33138;SDS011;19501;50.948;5.316;2022-09-20T16:56:27;7.65;;;2.60;;
33138;SDS011;19501;50.948;5.316;2022-09-20T16:58:55;11.88;;;3.10;;
33138;SDS011;19501;50.948;5.316;2022-09-20T17:01:22;9.15;;;2.75;;
33138;SDS011;19501;50.948;5.316;2022-09-20T17:03:48;10.52;;;2.90;;
33138;SDS011;19501;50.948;5.316;2022-09-20T17:06:14;7.78;;;2.53;;
33138;SDS011;19501;50.948;5.316;2022-09-20T17:08:41;13.07;;;2.95;;
33138;SDS011;19501;50.948;5.316;2022-09-20T17:11:09;9.35;;;2.90;;
33138;SDS011;19501;50.948;5.316;2022-09-20T17:13:39;7.18;;;2.95;;
33138;SDS011;19501;50.948;5.316;2022-09-20T17:16:08;5.30;;;2.58;;
33138;SDS011;19501;50.948;5.316;2022-09-20T17:18:36;12.45;;;3.05;;
33138;SDS011;19501;50.948;5.316;2022-09-20T17:21:06;9.02;;;2.90;;
33138;SDS011;19501;50.948;5.316;2022-09-20T17:23:40;15.25;;;4.35;;
33138;SDS011;19501;50.948;5.316;2022-09-20T17:26:09;7.78;;;3.15;;
33138;SDS011;19501;50.948;5.316;2022-09-20T17:28:38;9.90;;;2.85;;
33138;SDS011;19501;50.948;5.316;2022-09-20T17:31:06;11.93;;;3.47;;
33138;SDS011;19501;50.948;5.316;2022-09-20T17:33:34;11.55;;;3.05;;
33138;SDS011;19501;50.948;5.316;2022-09-20T17:36:00;10.95;;;4.45;;
33138;SDS011;19501;50.948;5.316;2022-09-20T17:38:27;10.48;;;4.35;;
33138;SDS011;19501;50.948;5.316;2022-09-20T17:41:04;13.15;;;4.18;;
33138;SDS011;19501;50.948;5.316;2022-09-20T17:43:32;13.15;;;3.60;;
33138;SDS011;19501;50.948;5.316;2022-09-20T17:46:06;7.53;;;3.10;;
33138;SDS011;19501;50.948;5.316;2022-09-20T17:48:36;6.53;;;3.38;;
33138;SDS011;19501;50.948;5.316;2022-09-20T17:51:02;13.25;;;4.30;;
33138;SDS011;19501;50.948;5.316;2022-09-20T17:53:30;11.65;;;3.58;;
33138;SDS011;19501;50.948;5.316;2022-09-20T17:55:57;9.85;;;3.80;;
33138;SDS011;19501;50.948;5.316;2022-09-20T17:58:25;12.32;;;3.30;;
33138;SDS011;19501;50.948;5.316;2022-09-20T18:00:52;11.07;;;3.40;;
33138;SDS011;19501;50.948;5.316;2022-09-20T18:03:22;10.93;;;3.80;;
33138;SDS011;19501;50.948;5.316;2022-09-20T18:05:49;13.13;;;4.55;;
33138;SDS011;19501;50.948;5.316;2022-09-20T18:08:16;12.27;;;4.40;;
33138;SDS011;19501;50.948;5.316;2022-09-20T18:10:56;15.73;;;5.28;;
33138;SDS011;19501;50.948;5.316;2022-09-20T18:13:22;12.18;;;3.80;;
33138;SDS011;19501;50.948;5.316;2022-09-20T18:15:51;13.25;;;3.15;;
33138;SDS011;19501;50.948;5.316;2022-09-20T18:18:17;12.70;;;3.38;;
33138;SDS011;19501;50.948;5.316;2022-09-20T18:20:42;12.57;;;3.38;;
33138;SDS011;19501;50.948;5.316;2022-09-20T18:23:08;11.35;;;3.58;;
33138;SDS011;19501;50.948;5.316;2022-09-20T18:25:33;9.13;;;3.10;;
33138;SDS011;19501;50.948;5.316;2022-09-20T18:28:19;8.13;;;3.13;;
33138;SDS011;19501;50.948;5.316;2022-09-20T18:30:45;10.38;;;2.97;;
33138;SDS011;19501;50.948;5.316;2022-09-20T18:33:11;8.57;;;3.15;;
33138;SDS011;19501;50.948;5.316;2022-09-20T18:35:40;10.95;;;3.10;;
33138;SDS011;19501;50.948;5.316;2022-09-20T18:38:07;17.20;;;5.47;;
33138;SDS011;19501;50.948;5.316;2022-09-20T18:40:33;14.95;;;5.30;;
33138;SDS011;19501;50.948;5.316;2022-09-20T18:43:02;12.25;;;4.18;;
33138;SDS011;19501;50.948;5.316;2022-09-20T18:45:28;13.77;;;4.55;;
33138;SDS011;19501;50.948;5.316;2022-09-20T18:47:54;21.83;;;8.23;;
33138;SDS011;19501;50.948;5.316;2022-09-20T18:50:23;18.70;;;6.80;;
33138;SDS011;19501;50.948;5.316;2022-09-20T18:52:51;12.68;;;4.50;;
33138;SDS011;19501;50.948;5.316;2022-09-20T18:55:17;14.30;;;4.00;;
33138;SDS011;19501;50.948;5.316;2022-09-20T18:57:43;11.77;;;4.47;;
33138;SDS011;19501;50.948;5.316;2022-09-20T19:00:10;14.80;;;4.72;;
33138;SDS011;19501;50.948;5.316;2022-09-20T19:05:23;15.85;;;5.20;;
33138;SDS011;19501;50.948;5.316;2022-09-20T19:10:40;16.42;;;5.47;;
33138;SDS011;19501;50.948;5.316;2022-09-20T19:13:21;14.30;;;4.40;;
33138;SDS011;19501;50.948;5.316;2022-09-20T19:22:04;28.90;;;10.55;;
33138;SDS011;19501;50.948;5.316;2022-09-20T19:27:16;35.60;;;15.68;;
33138;SDS011;19501;50.948;5.316;2022-09-20T19:29:44;33.22;;;14.52;;
33138;SDS011;19501;50.948;5.316;2022-09-20T19:32:12;37.20;;;15.60;;
33138;SDS011;19501;50.948;5.316;2022-09-20T19:34:42;31.17;;;12.60;;
33138;SDS011;19501;50.948;5.316;2022-09-20T19:40:09;19.63;;;9.13;;
33138;SDS011;19501;50.948;5.316;2022-09-20T19:43:00;19.60;;;8.95;;
33138;SDS011;19501;50.948;5.316;2022-09-20T19:45:41;19.48;;;6.15;;
33138;SDS011;19501;50.948;5.316;2022-09-20T19:48:38;18.88;;;5.85;;
33138;SDS011;19501;50.948;5.316;2022-09-20T19:51:10;17.52;;;6.18;;
33138;SDS011;19501;50.948;5.316;2022-09-20T19:53:36;15.10;;;5.65;;
33138;SDS011;19501;50.948;5.316;2022-09-20T19:56:09;18.65;;;7.43;;
33138;SDS011;19501;50.948;5.316;2022-09-20T19:58:48;18.50;;;6.45;;
33138;SDS011;19501;50.948;5.316;2022-09-20T20:01:17;17.38;;;6.60;;
33138;SDS011;19501;50.948;5.316;2022-09-20T20:03:44;20.92;;;7.00;;
33138;SDS011;19501;50.948;5.316;2022-09-20T20:06:14;15.82;;;6.78;;
33138;SDS011;19501;50.948;5.316;2022-09-20T20:08:52;20.38;;;6.65;;
33138;SDS011;19501;50.948;5.316;2022-09-20T20:11:39;17.85;;;7.40;;
33138;SDS011;19501;50.948;5.316;2022-09-20T20:23:10;18.77;;;7.72;;
33138;SDS011;19501;50.948;5.316;2022-09-20T20:28:07;17.13;;;6.55;;
33138;SDS011;19501;50.948;5.316;2022-09-20T20:30:33;17.23;;;7.05;;
33138;SDS011;19501;50.948;5.316;2022-09-20T20:32:59;20.60;;;7.47;;
33138;SDS011;19501;50.948;5.316;2022-09-20T20:35:25;17.92;;;7.38;;
33138;SDS011;19501;50.948;5.316;2022-09-20T20:37:52;17.20;;;6.55;;
33138;SDS011;19501;50.948;5.316;2022-09-20T20:40:18;17.77;;;6.97;;
33138;SDS011;19501;50.948;5.316;2022-09-20T20:42:43;19.98;;;7.00;;
33138;SDS011;19501;50.948;5.316;2022-09-20T20:45:09;16.85;;;6.95;;
33138;SDS011;19501;50.948;5.316;2022-09-20T20:47:36;19.70;;;7.75;;
33138;SDS011;19501;50.948;5.316;2022-09-20T20:50:02;19.58;;;7.25;;
33138;SDS011;19501;50.948;5.316;2022-09-20T20:52:29;20.85;;;8.57;;
33138;SDS011;19501;50.948;5.316;2022-09-20T20:54:55;16.80;;;7.40;;